<?xml version="1.0" encoding="UTF-8" standalone="no" ?><gpx xmlns="http://www.topografix.com/GPX/1/1" xmlns:gpxx="http://www.garmin.com/xmlschemas/GpxExtensions/v3" xmlns:wptx1="http://www.garmin.com/xmlschemas/WaypointExtension/v1" xmlns:gpxtpx="http://www.garmin.com/xmlschemas/TrackPointExtension/v1" creator="GuideVTT.com" version="1.1" xmlns:xsi="http://www.w3.org/2001/XMLSchema-instance" xsi:schemaLocation="http://www.topografix.com/GPX/1/1 http://www.topografix.com/GPX/1/1/gpx.xsd http://www.garmin.com/xmlschemas/GpxExtensions/v3 http://www8.garmin.com/xmlschemas/GpxExtensionsv3.xsd http://www.garmin.com/xmlschemas/WaypointExtension/v1 http://www8.garmin.com/xmlschemas/WaypointExtensionv1.xsd http://www.garmin.com/xmlschemas/TrackPointExtension/v1 http://www.garmin.com/xmlschemas/TrackPointExtensionv1.xsd">
<metadata><link href="http://www.garmin.com"><text>Garmin International</text></link><time>2013-06-22T15:13:50Z</time></metadata>
<trk><name>parcours5.gpx</name><extensions><gpxx:TrackExtension><gpxx:DisplayColor>Cyan</gpxx:DisplayColor></gpxx:TrackExtension></extensions><trkseg>
<trkpt lat="46.23075000" lon="7.31181670"><ele></ele><time>2014-6-11T10:22:29Z</time></trkpt>
<trkpt lat="46.23081670" lon="7.31180000"><ele></ele><time>2014-6-11T10:22:32Z</time></trkpt>
<trkpt lat="46.23095000" lon="7.31188330"><ele></ele><time>2014-6-11T10:22:35Z</time></trkpt>
<trkpt lat="46.23206670" lon="7.31126670"><ele></ele><time>2014-6-11T10:22:38Z</time></trkpt>
<trkpt lat="46.23236670" lon="7.31156670"><ele></ele><time>2014-6-11T10:22:41Z</time></trkpt>
<trkpt lat="46.23258330" lon="7.31246670"><ele></ele><time>2014-6-11T10:22:44Z</time></trkpt>
<trkpt lat="46.23390000" lon="7.31193330"><ele></ele><time>2014-6-11T10:22:47Z</time></trkpt>
<trkpt lat="46.23456670" lon="7.31171670"><ele></ele><time>2014-6-11T10:22:50Z</time></trkpt>
<trkpt lat="46.23486670" lon="7.31203330"><ele></ele><time>2014-6-11T10:22:53Z</time></trkpt>
<trkpt lat="46.23528330" lon="7.31253330"><ele></ele><time>2014-6-11T10:22:56Z</time></trkpt>
<trkpt lat="46.23635000" lon="7.31336670"><ele></ele><time>2014-6-11T10:22:59Z</time></trkpt>
<trkpt lat="46.23673330" lon="7.31375000"><ele></ele><time>2014-6-11T10:23:2Z</time></trkpt>
<trkpt lat="46.23703330" lon="7.31398330"><ele></ele><time>2014-6-11T10:23:5Z</time></trkpt>
<trkpt lat="46.23850000" lon="7.31410000"><ele></ele><time>2014-6-11T10:23:8Z</time></trkpt>
<trkpt lat="46.23911670" lon="7.31403330"><ele></ele><time>2014-6-11T10:23:11Z</time></trkpt>
<trkpt lat="46.24030000" lon="7.31458330"><ele></ele><time>2014-6-11T10:23:14Z</time></trkpt>
<trkpt lat="46.24036670" lon="7.31470000"><ele></ele><time>2014-6-11T10:23:17Z</time></trkpt>
<trkpt lat="46.24036670" lon="7.31500000"><ele></ele><time>2014-6-11T10:23:20Z</time></trkpt>
<trkpt lat="46.24030000" lon="7.31510000"><ele></ele><time>2014-6-11T10:23:23Z</time></trkpt>
<trkpt lat="46.24006670" lon="7.31531670"><ele></ele><time>2014-6-11T10:23:26Z</time></trkpt>
<trkpt lat="46.23978330" lon="7.31563330"><ele></ele><time>2014-6-11T10:23:29Z</time></trkpt>
<trkpt lat="46.23961670" lon="7.31613330"><ele></ele><time>2014-6-11T10:23:32Z</time></trkpt>
<trkpt lat="46.23970000" lon="7.31621670"><ele></ele><time>2014-6-11T10:23:35Z</time></trkpt>
<trkpt lat="46.24081670" lon="7.31660000"><ele></ele><time>2014-6-11T10:23:38Z</time></trkpt>
<trkpt lat="46.24121670" lon="7.31643330"><ele></ele><time>2014-6-11T10:23:41Z</time></trkpt>
<trkpt lat="46.24170000" lon="7.31663330"><ele></ele><time>2014-6-11T10:23:44Z</time></trkpt>
<trkpt lat="46.24178330" lon="7.31690000"><ele></ele><time>2014-6-11T10:23:47Z</time></trkpt>
<trkpt lat="46.24170000" lon="7.31701670"><ele></ele><time>2014-6-11T10:23:50Z</time></trkpt>
<trkpt lat="46.24163330" lon="7.31750000"><ele></ele><time>2014-6-11T10:23:53Z</time></trkpt>
<trkpt lat="46.24185000" lon="7.31790000"><ele></ele><time>2014-6-11T10:23:56Z</time></trkpt>
<trkpt lat="46.24261670" lon="7.31813330"><ele></ele><time>2014-6-11T10:23:59Z</time></trkpt>
<trkpt lat="46.24306670" lon="7.31835000"><ele></ele><time>2014-6-11T10:24:2Z</time></trkpt>
<trkpt lat="46.24336670" lon="7.31858330"><ele></ele><time>2014-6-11T10:24:5Z</time></trkpt>
<trkpt lat="46.24366670" lon="7.31843330"><ele></ele><time>2014-6-11T10:24:8Z</time></trkpt>
<trkpt lat="46.24401670" lon="7.31811670"><ele></ele><time>2014-6-11T10:24:11Z</time></trkpt>
<trkpt lat="46.24428330" lon="7.31756670"><ele></ele><time>2014-6-11T10:24:14Z</time></trkpt>
<trkpt lat="46.24425000" lon="7.31716670"><ele></ele><time>2014-6-11T10:24:17Z</time></trkpt>
<trkpt lat="46.24411670" lon="7.31656670"><ele></ele><time>2014-6-11T10:24:20Z</time></trkpt>
<trkpt lat="46.24388330" lon="7.31516670"><ele></ele><time>2014-6-11T10:24:23Z</time></trkpt>
<trkpt lat="46.24403330" lon="7.31483330"><ele></ele><time>2014-6-11T10:24:26Z</time></trkpt>
<trkpt lat="46.24411670" lon="7.31450000"><ele></ele><time>2014-6-11T10:24:29Z</time></trkpt>
<trkpt lat="46.24406670" lon="7.31403330"><ele></ele><time>2014-6-11T10:24:32Z</time></trkpt>
<trkpt lat="46.24410000" lon="7.31345000"><ele></ele><time>2014-6-11T10:24:35Z</time></trkpt>
<trkpt lat="46.24420000" lon="7.31278330"><ele></ele><time>2014-6-11T10:24:38Z</time></trkpt>
<trkpt lat="46.24448330" lon="7.31261670"><ele></ele><time>2014-6-11T10:24:41Z</time></trkpt>
<trkpt lat="46.24480000" lon="7.31263330"><ele></ele><time>2014-6-11T10:24:44Z</time></trkpt>
<trkpt lat="46.24485000" lon="7.31281670"><ele></ele><time>2014-6-11T10:24:47Z</time></trkpt>
<trkpt lat="46.24468330" lon="7.31323330"><ele></ele><time>2014-6-11T10:24:50Z</time></trkpt>
<trkpt lat="46.24528330" lon="7.31570000"><ele></ele><time>2014-6-11T10:24:53Z</time></trkpt>
<trkpt lat="46.24545000" lon="7.31656670"><ele></ele><time>2014-6-11T10:24:56Z</time></trkpt>
<trkpt lat="46.24553330" lon="7.31761670"><ele></ele><time>2014-6-11T10:24:59Z</time></trkpt>
<trkpt lat="46.24558330" lon="7.31766670"><ele></ele><time>2014-6-11T10:25:2Z</time></trkpt>
<trkpt lat="46.24568330" lon="7.31748330"><ele></ele><time>2014-6-11T10:25:5Z</time></trkpt>
<trkpt lat="46.24575000" lon="7.31680000"><ele></ele><time>2014-6-11T10:25:8Z</time></trkpt>
<trkpt lat="46.24596670" lon="7.31583330"><ele></ele><time>2014-6-11T10:25:11Z</time></trkpt>
<trkpt lat="46.24611670" lon="7.31473330"><ele></ele><time>2014-6-11T10:25:14Z</time></trkpt>
<trkpt lat="46.24628330" lon="7.31423330"><ele></ele><time>2014-6-11T10:25:17Z</time></trkpt>
<trkpt lat="46.24656670" lon="7.31376670"><ele></ele><time>2014-6-11T10:25:20Z</time></trkpt>
<trkpt lat="46.24686670" lon="7.31350000"><ele></ele><time>2014-6-11T10:25:23Z</time></trkpt>
<trkpt lat="46.24713330" lon="7.31366670"><ele></ele><time>2014-6-11T10:25:26Z</time></trkpt>
<trkpt lat="46.24736670" lon="7.31388330"><ele></ele><time>2014-6-11T10:25:29Z</time></trkpt>
<trkpt lat="46.24725000" lon="7.31411670"><ele></ele><time>2014-6-11T10:25:32Z</time></trkpt>
<trkpt lat="46.24700000" lon="7.31440000"><ele></ele><time>2014-6-11T10:25:35Z</time></trkpt>
<trkpt lat="46.24691670" lon="7.31480000"><ele></ele><time>2014-6-11T10:25:38Z</time></trkpt>
<trkpt lat="46.24685000" lon="7.31540000"><ele></ele><time>2014-6-11T10:25:41Z</time></trkpt>
<trkpt lat="46.24726670" lon="7.31703330"><ele></ele><time>2014-6-11T10:25:44Z</time></trkpt>
<trkpt lat="46.24730000" lon="7.31766670"><ele></ele><time>2014-6-11T10:25:47Z</time></trkpt>
<trkpt lat="46.24738330" lon="7.31820000"><ele></ele><time>2014-6-11T10:25:50Z</time></trkpt>
<trkpt lat="46.24763330" lon="7.31865000"><ele></ele><time>2014-6-11T10:25:53Z</time></trkpt>
<trkpt lat="46.24768330" lon="7.31901670"><ele></ele><time>2014-6-11T10:25:56Z</time></trkpt>
<trkpt lat="46.24750000" lon="7.31946670"><ele></ele><time>2014-6-11T10:25:59Z</time></trkpt>
<trkpt lat="46.24760000" lon="7.31993330"><ele></ele><time>2014-6-11T10:26:2Z</time></trkpt>
<trkpt lat="46.24781670" lon="7.32045000"><ele></ele><time>2014-6-11T10:26:5Z</time></trkpt>
<trkpt lat="46.24803330" lon="7.32106670"><ele></ele><time>2014-6-11T10:26:8Z</time></trkpt>
<trkpt lat="46.24806670" lon="7.32091670"><ele></ele><time>2014-6-11T10:26:11Z</time></trkpt>
<trkpt lat="46.24805000" lon="7.31988330"><ele></ele><time>2014-6-11T10:26:14Z</time></trkpt>
<trkpt lat="46.24798330" lon="7.31998330"><ele></ele><time>2014-6-11T10:26:17Z</time></trkpt>
<trkpt lat="46.24805000" lon="7.31993330"><ele></ele><time>2014-6-11T10:26:20Z</time></trkpt>
<trkpt lat="46.24826670" lon="7.31940000"><ele></ele><time>2014-6-11T10:26:23Z</time></trkpt>
<trkpt lat="46.24835000" lon="7.31928330"><ele></ele><time>2014-6-11T10:26:26Z</time></trkpt>
<trkpt lat="46.24830000" lon="7.31831670"><ele></ele><time>2014-6-11T10:26:29Z</time></trkpt>
<trkpt lat="46.24858330" lon="7.31806670"><ele></ele><time>2014-6-11T10:26:32Z</time></trkpt>
<trkpt lat="46.24863330" lon="7.31796670"><ele></ele><time>2014-6-11T10:26:35Z</time></trkpt>
<trkpt lat="46.24871670" lon="7.31730000"><ele></ele><time>2014-6-11T10:26:38Z</time></trkpt>
<trkpt lat="46.24890000" lon="7.31663330"><ele></ele><time>2014-6-11T10:26:41Z</time></trkpt>
<trkpt lat="46.24953330" lon="7.31600000"><ele></ele><time>2014-6-11T10:26:44Z</time></trkpt>
<trkpt lat="46.24986670" lon="7.31585000"><ele></ele><time>2014-6-11T10:26:47Z</time></trkpt>
<trkpt lat="46.25106670" lon="7.31570000"><ele></ele><time>2014-6-11T10:26:50Z</time></trkpt>
<trkpt lat="46.25320000" lon="7.31626670"><ele></ele><time>2014-6-11T10:26:53Z</time></trkpt>
<trkpt lat="46.25348330" lon="7.31615000"><ele></ele><time>2014-6-11T10:26:56Z</time></trkpt>
<trkpt lat="46.25368330" lon="7.31591670"><ele></ele><time>2014-6-11T10:26:59Z</time></trkpt>
<trkpt lat="46.25378330" lon="7.31573330"><ele></ele><time>2014-6-11T10:27:2Z</time></trkpt>
<trkpt lat="46.25433330" lon="7.31551670"><ele></ele><time>2014-6-11T10:27:5Z</time></trkpt>
<trkpt lat="46.25441670" lon="7.31555000"><ele></ele><time>2014-6-11T10:27:8Z</time></trkpt>
<trkpt lat="46.25456670" lon="7.31578330"><ele></ele><time>2014-6-11T10:27:11Z</time></trkpt>
<trkpt lat="46.25485000" lon="7.31636670"><ele></ele><time>2014-6-11T10:27:14Z</time></trkpt>
<trkpt lat="46.25543330" lon="7.31726670"><ele></ele><time>2014-6-11T10:27:17Z</time></trkpt>
<trkpt lat="46.25566670" lon="7.31741670"><ele></ele><time>2014-6-11T10:27:20Z</time></trkpt>
<trkpt lat="46.25656670" lon="7.31730000"><ele></ele><time>2014-6-11T10:27:23Z</time></trkpt>
<trkpt lat="46.25838330" lon="7.31733330"><ele></ele><time>2014-6-11T10:27:26Z</time></trkpt>
<trkpt lat="46.25870000" lon="7.31725000"><ele></ele><time>2014-6-11T10:27:29Z</time></trkpt>
<trkpt lat="46.25905000" lon="7.31730000"><ele></ele><time>2014-6-11T10:27:32Z</time></trkpt>
<trkpt lat="46.25971670" lon="7.31796670"><ele></ele><time>2014-6-11T10:27:35Z</time></trkpt>
<trkpt lat="46.26025000" lon="7.31858330"><ele></ele><time>2014-6-11T10:27:38Z</time></trkpt>
<trkpt lat="46.26065000" lon="7.31910000"><ele></ele><time>2014-6-11T10:27:41Z</time></trkpt>
<trkpt lat="46.26118330" lon="7.31916670"><ele></ele><time>2014-6-11T10:27:44Z</time></trkpt>
<trkpt lat="46.26176670" lon="7.31931670"><ele></ele><time>2014-6-11T10:27:47Z</time></trkpt>
<trkpt lat="46.26271670" lon="7.31988330"><ele></ele><time>2014-6-11T10:27:50Z</time></trkpt>
<trkpt lat="46.26341670" lon="7.32045000"><ele></ele><time>2014-6-11T10:27:53Z</time></trkpt>
<trkpt lat="46.26386670" lon="7.32061670"><ele></ele><time>2014-6-11T10:27:56Z</time></trkpt>
<trkpt lat="46.26425000" lon="7.32058330"><ele></ele><time>2014-6-11T10:27:59Z</time></trkpt>
<trkpt lat="46.26448330" lon="7.32068330"><ele></ele><time>2014-6-11T10:28:2Z</time></trkpt>
<trkpt lat="46.26478330" lon="7.32096670"><ele></ele><time>2014-6-11T10:28:5Z</time></trkpt>
<trkpt lat="46.26545000" lon="7.32128330"><ele></ele><time>2014-6-11T10:28:8Z</time></trkpt>
<trkpt lat="46.26560000" lon="7.32151670"><ele></ele><time>2014-6-11T10:28:11Z</time></trkpt>
<trkpt lat="46.26576670" lon="7.32190000"><ele></ele><time>2014-6-11T10:28:14Z</time></trkpt>
<trkpt lat="46.26586670" lon="7.32193330"><ele></ele><time>2014-6-11T10:28:17Z</time></trkpt>
<trkpt lat="46.26601670" lon="7.32181670"><ele></ele><time>2014-6-11T10:28:20Z</time></trkpt>
<trkpt lat="46.26693330" lon="7.32166670"><ele></ele><time>2014-6-11T10:28:23Z</time></trkpt>
<trkpt lat="46.26731670" lon="7.32195000"><ele></ele><time>2014-6-11T10:28:26Z</time></trkpt>
<trkpt lat="46.26796670" lon="7.32296670"><ele></ele><time>2014-6-11T10:28:29Z</time></trkpt>
<trkpt lat="46.26803330" lon="7.32298330"><ele></ele><time>2014-6-11T10:28:32Z</time></trkpt>
<trkpt lat="46.26590000" lon="7.31503330"><ele></ele><time>2014-6-11T10:28:35Z</time></trkpt>
<trkpt lat="46.26595000" lon="7.31510000"><ele></ele><time>2014-6-11T10:28:38Z</time></trkpt>
<trkpt lat="46.26806670" lon="7.32265000"><ele></ele><time>2014-6-11T10:28:41Z</time></trkpt>
<trkpt lat="46.26836670" lon="7.32285000"><ele></ele><time>2014-6-11T10:28:44Z</time></trkpt>
<trkpt lat="46.26863330" lon="7.32315000"><ele></ele><time>2014-6-11T10:28:47Z</time></trkpt>
<trkpt lat="46.26920000" lon="7.32406670"><ele></ele><time>2014-6-11T10:28:50Z</time></trkpt>
<trkpt lat="46.26993330" lon="7.32411670"><ele></ele><time>2014-6-11T10:28:53Z</time></trkpt>
<trkpt lat="46.27016670" lon="7.32410000"><ele></ele><time>2014-6-11T10:28:56Z</time></trkpt>
<trkpt lat="46.27035000" lon="7.32341670"><ele></ele><time>2014-6-11T10:28:59Z</time></trkpt>
<trkpt lat="46.27053330" lon="7.32283330"><ele></ele><time>2014-6-11T10:29:2Z</time></trkpt>
<trkpt lat="46.27058330" lon="7.32276670"><ele></ele><time>2014-6-11T10:29:5Z</time></trkpt>
<trkpt lat="46.27051670" lon="7.32271670"><ele></ele><time>2014-6-11T10:29:8Z</time></trkpt>
<trkpt lat="46.27050000" lon="7.32276670"><ele></ele><time>2014-6-11T10:29:11Z</time></trkpt>
<trkpt lat="46.27051670" lon="7.32271670"><ele></ele><time>2014-6-11T10:29:14Z</time></trkpt>
<trkpt lat="46.27053330" lon="7.32275000"><ele></ele><time>2014-6-11T10:29:17Z</time></trkpt>
<trkpt lat="46.27090000" lon="7.32248330"><ele></ele><time>2014-6-11T10:29:20Z</time></trkpt>
<trkpt lat="46.27095000" lon="7.32223330"><ele></ele><time>2014-6-11T10:29:23Z</time></trkpt>
<trkpt lat="46.27098330" lon="7.32231670"><ele></ele><time>2014-6-11T10:29:26Z</time></trkpt>
<trkpt lat="46.27066670" lon="7.32148330"><ele></ele><time>2014-6-11T10:29:29Z</time></trkpt>
<trkpt lat="46.27050000" lon="7.32111670"><ele></ele><time>2014-6-11T10:29:32Z</time></trkpt>
<trkpt lat="46.27003330" lon="7.32091670"><ele></ele><time>2014-6-11T10:29:35Z</time></trkpt>
<trkpt lat="46.26961670" lon="7.32061670"><ele></ele><time>2014-6-11T10:29:38Z</time></trkpt>
<trkpt lat="46.26918330" lon="7.32006670"><ele></ele><time>2014-6-11T10:29:41Z</time></trkpt>
<trkpt lat="46.26883330" lon="7.31970000"><ele></ele><time>2014-6-11T10:29:44Z</time></trkpt>
<trkpt lat="46.26843330" lon="7.31901670"><ele></ele><time>2014-6-11T10:29:47Z</time></trkpt>
<trkpt lat="46.26820000" lon="7.31873330"><ele></ele><time>2014-6-11T10:29:50Z</time></trkpt>
<trkpt lat="46.26830000" lon="7.31876670"><ele></ele><time>2014-6-11T10:29:53Z</time></trkpt>
<trkpt lat="46.26868330" lon="7.31918330"><ele></ele><time>2014-6-11T10:29:56Z</time></trkpt>
<trkpt lat="46.26958330" lon="7.31968330"><ele></ele><time>2014-6-11T10:29:59Z</time></trkpt>
<trkpt lat="46.26990000" lon="7.31963330"><ele></ele><time>2014-6-11T10:30:2Z</time></trkpt>
<trkpt lat="46.27031670" lon="7.31978330"><ele></ele><time>2014-6-11T10:30:5Z</time></trkpt>
<trkpt lat="46.27076670" lon="7.32006670"><ele></ele><time>2014-6-11T10:30:8Z</time></trkpt>
<trkpt lat="46.27113330" lon="7.32018330"><ele></ele><time>2014-6-11T10:30:11Z</time></trkpt>
<trkpt lat="46.27226670" lon="7.32023330"><ele></ele><time>2014-6-11T10:30:14Z</time></trkpt>
<trkpt lat="46.27255000" lon="7.32070000"><ele></ele><time>2014-6-11T10:30:17Z</time></trkpt>
<trkpt lat="46.27306670" lon="7.32113330"><ele></ele><time>2014-6-11T10:30:20Z</time></trkpt>
<trkpt lat="46.27341670" lon="7.32158330"><ele></ele><time>2014-6-11T10:30:23Z</time></trkpt>
<trkpt lat="46.27368330" lon="7.32201670"><ele></ele><time>2014-6-11T10:30:26Z</time></trkpt>
<trkpt lat="46.27378330" lon="7.32255000"><ele></ele><time>2014-6-11T10:30:29Z</time></trkpt>
<trkpt lat="46.27403330" lon="7.32298330"><ele></ele><time>2014-6-11T10:30:32Z</time></trkpt>
<trkpt lat="46.27411670" lon="7.32290000"><ele></ele><time>2014-6-11T10:30:35Z</time></trkpt>
<trkpt lat="46.27396670" lon="7.32248330"><ele></ele><time>2014-6-11T10:30:38Z</time></trkpt>
<trkpt lat="46.27388330" lon="7.32195000"><ele></ele><time>2014-6-11T10:30:41Z</time></trkpt>
<trkpt lat="46.27336670" lon="7.32091670"><ele></ele><time>2014-6-11T10:30:44Z</time></trkpt>
<trkpt lat="46.27298330" lon="7.32038330"><ele></ele><time>2014-6-11T10:30:47Z</time></trkpt>
<trkpt lat="46.27233330" lon="7.31940000"><ele></ele><time>2014-6-11T10:30:50Z</time></trkpt>
<trkpt lat="46.27170000" lon="7.31898330"><ele></ele><time>2014-6-11T10:30:53Z</time></trkpt>
<trkpt lat="46.27091670" lon="7.31841670"><ele></ele><time>2014-6-11T10:30:56Z</time></trkpt>
<trkpt lat="46.27050000" lon="7.31790000"><ele></ele><time>2014-6-11T10:30:59Z</time></trkpt>
<trkpt lat="46.26980000" lon="7.31766670"><ele></ele><time>2014-6-11T10:31:2Z</time></trkpt>
<trkpt lat="46.26950000" lon="7.31790000"><ele></ele><time>2014-6-11T10:31:5Z</time></trkpt>
<trkpt lat="46.26880000" lon="7.31785000"><ele></ele><time>2014-6-11T10:31:8Z</time></trkpt>
<trkpt lat="46.26818330" lon="7.31708330"><ele></ele><time>2014-6-11T10:31:11Z</time></trkpt>
<trkpt lat="46.26800000" lon="7.31648330"><ele></ele><time>2014-6-11T10:31:14Z</time></trkpt>
<trkpt lat="46.26826670" lon="7.31525000"><ele></ele><time>2014-6-11T10:31:17Z</time></trkpt>
<trkpt lat="46.26848330" lon="7.31501670"><ele></ele><time>2014-6-11T10:31:20Z</time></trkpt>
<trkpt lat="46.26883330" lon="7.31416670"><ele></ele><time>2014-6-11T10:31:23Z</time></trkpt>
<trkpt lat="46.26896670" lon="7.31328330"><ele></ele><time>2014-6-11T10:31:26Z</time></trkpt>
<trkpt lat="46.26868330" lon="7.31271670"><ele></ele><time>2014-6-11T10:31:29Z</time></trkpt>
<trkpt lat="46.26828330" lon="7.31286670"><ele></ele><time>2014-6-11T10:31:32Z</time></trkpt>
<trkpt lat="46.26781670" lon="7.31335000"><ele></ele><time>2014-6-11T10:31:35Z</time></trkpt>
<trkpt lat="46.26726670" lon="7.31398330"><ele></ele><time>2014-6-11T10:31:38Z</time></trkpt>
<trkpt lat="46.26670000" lon="7.31525000"><ele></ele><time>2014-6-11T10:31:41Z</time></trkpt>
<trkpt lat="46.26605000" lon="7.31495000"><ele></ele><time>2014-6-11T10:31:44Z</time></trkpt>
<trkpt lat="46.26515000" lon="7.31508330"><ele></ele><time>2014-6-11T10:31:47Z</time></trkpt>
<trkpt lat="46.26456670" lon="7.31510000"><ele></ele><time>2014-6-11T10:31:50Z</time></trkpt>
<trkpt lat="46.26435000" lon="7.31483330"><ele></ele><time>2014-6-11T10:31:53Z</time></trkpt>
<trkpt lat="46.26430000" lon="7.31461670"><ele></ele><time>2014-6-11T10:31:56Z</time></trkpt>
<trkpt lat="46.26356670" lon="7.31371670"><ele></ele><time>2014-6-11T10:31:59Z</time></trkpt>
<trkpt lat="46.26275000" lon="7.31285000"><ele></ele><time>2014-6-11T10:32:2Z</time></trkpt>
<trkpt lat="46.26203330" lon="7.31171670"><ele></ele><time>2014-6-11T10:32:5Z</time></trkpt>
<trkpt lat="46.26141670" lon="7.31106670"><ele></ele><time>2014-6-11T10:32:8Z</time></trkpt>
<trkpt lat="46.26121670" lon="7.31073330"><ele></ele><time>2014-6-11T10:32:11Z</time></trkpt>
<trkpt lat="46.26096670" lon="7.31051670"><ele></ele><time>2014-6-11T10:32:14Z</time></trkpt>
<trkpt lat="46.26008330" lon="7.31023330"><ele></ele><time>2014-6-11T10:32:17Z</time></trkpt>
<trkpt lat="46.25998330" lon="7.31021670"><ele></ele><time>2014-6-11T10:32:20Z</time></trkpt>
<trkpt lat="46.25953330" lon="7.31028330"><ele></ele><time>2014-6-11T10:32:23Z</time></trkpt>
<trkpt lat="46.25940000" lon="7.31023330"><ele></ele><time>2014-6-11T10:32:26Z</time></trkpt>
<trkpt lat="46.25918330" lon="7.31008330"><ele></ele><time>2014-6-11T10:32:29Z</time></trkpt>
<trkpt lat="46.25870000" lon="7.30950000"><ele></ele><time>2014-6-11T10:32:32Z</time></trkpt>
<trkpt lat="46.25860000" lon="7.30933330"><ele></ele><time>2014-6-11T10:32:35Z</time></trkpt>
<trkpt lat="46.25838330" lon="7.30838330"><ele></ele><time>2014-6-11T10:32:38Z</time></trkpt>
<trkpt lat="46.25811670" lon="7.30771670"><ele></ele><time>2014-6-11T10:32:41Z</time></trkpt>
<trkpt lat="46.25801670" lon="7.30721670"><ele></ele><time>2014-6-11T10:32:44Z</time></trkpt>
<trkpt lat="46.25773330" lon="7.30685000"><ele></ele><time>2014-6-11T10:32:47Z</time></trkpt>
<trkpt lat="46.25746670" lon="7.30681670"><ele></ele><time>2014-6-11T10:32:50Z</time></trkpt>
<trkpt lat="46.25718330" lon="7.30660000"><ele></ele><time>2014-6-11T10:32:53Z</time></trkpt>
<trkpt lat="46.25693330" lon="7.30628330"><ele></ele><time>2014-6-11T10:32:56Z</time></trkpt>
<trkpt lat="46.25616670" lon="7.30576670"><ele></ele><time>2014-6-11T10:32:59Z</time></trkpt>
<trkpt lat="46.25620000" lon="7.30595000"><ele></ele><time>2014-6-11T10:33:2Z</time></trkpt>
<trkpt lat="46.25640000" lon="7.30625000"><ele></ele><time>2014-6-11T10:33:5Z</time></trkpt>
<trkpt lat="46.25723330" lon="7.30733330"><ele></ele><time>2014-6-11T10:33:8Z</time></trkpt>
<trkpt lat="46.25753330" lon="7.30761670"><ele></ele><time>2014-6-11T10:33:11Z</time></trkpt>
<trkpt lat="46.25723330" lon="7.30741670"><ele></ele><time>2014-6-11T10:33:14Z</time></trkpt>
<trkpt lat="46.25686670" lon="7.30736670"><ele></ele><time>2014-6-11T10:33:17Z</time></trkpt>
<trkpt lat="46.25643330" lon="7.30718330"><ele></ele><time>2014-6-11T10:33:20Z</time></trkpt>
<trkpt lat="46.25565000" lon="7.30736670"><ele></ele><time>2014-6-11T10:33:23Z</time></trkpt>
<trkpt lat="46.25535000" lon="7.30716670"><ele></ele><time>2014-6-11T10:33:26Z</time></trkpt>
<trkpt lat="46.25505000" lon="7.30658330"><ele></ele><time>2014-6-11T10:33:29Z</time></trkpt>
<trkpt lat="46.25478330" lon="7.30630000"><ele></ele><time>2014-6-11T10:33:32Z</time></trkpt>
<trkpt lat="46.25355000" lon="7.30585000"><ele></ele><time>2014-6-11T10:33:35Z</time></trkpt>
<trkpt lat="46.25320000" lon="7.30540000"><ele></ele><time>2014-6-11T10:33:38Z</time></trkpt>
<trkpt lat="46.25265000" lon="7.30495000"><ele></ele><time>2014-6-11T10:33:41Z</time></trkpt>
<trkpt lat="46.25246670" lon="7.30461670"><ele></ele><time>2014-6-11T10:33:44Z</time></trkpt>
<trkpt lat="46.25240000" lon="7.30433330"><ele></ele><time>2014-6-11T10:33:47Z</time></trkpt>
<trkpt lat="46.25171670" lon="7.30341670"><ele></ele><time>2014-6-11T10:33:50Z</time></trkpt>
<trkpt lat="46.25043330" lon="7.30216670"><ele></ele><time>2014-6-11T10:33:53Z</time></trkpt>
<trkpt lat="46.24950000" lon="7.30188330"><ele></ele><time>2014-6-11T10:33:56Z</time></trkpt>
<trkpt lat="46.24905000" lon="7.30200000"><ele></ele><time>2014-6-11T10:33:59Z</time></trkpt>
<trkpt lat="46.24775000" lon="7.30211670"><ele></ele><time>2014-6-11T10:34:2Z</time></trkpt>
<trkpt lat="46.24731670" lon="7.30238330"><ele></ele><time>2014-6-11T10:34:5Z</time></trkpt>
<trkpt lat="46.24685000" lon="7.30283330"><ele></ele><time>2014-6-11T10:34:8Z</time></trkpt>
<trkpt lat="46.24626670" lon="7.30275000"><ele></ele><time>2014-6-11T10:34:11Z</time></trkpt>
<trkpt lat="46.24605000" lon="7.30236670"><ele></ele><time>2014-6-11T10:34:14Z</time></trkpt>
<trkpt lat="46.24553330" lon="7.30080000"><ele></ele><time>2014-6-11T10:34:17Z</time></trkpt>
<trkpt lat="46.24530000" lon="7.30031670"><ele></ele><time>2014-6-11T10:34:20Z</time></trkpt>
<trkpt lat="46.24520000" lon="7.29873330"><ele></ele><time>2014-6-11T10:34:23Z</time></trkpt>
<trkpt lat="46.24493330" lon="7.29815000"><ele></ele><time>2014-6-11T10:34:26Z</time></trkpt>
<trkpt lat="46.24358330" lon="7.29643330"><ele></ele><time>2014-6-11T10:34:29Z</time></trkpt>
<trkpt lat="46.24200000" lon="7.29581670"><ele></ele><time>2014-6-11T10:34:32Z</time></trkpt>
<trkpt lat="46.24080000" lon="7.29570000"><ele></ele><time>2014-6-11T10:34:35Z</time></trkpt>
<trkpt lat="46.24030000" lon="7.29530000"><ele></ele><time>2014-6-11T10:34:38Z</time></trkpt>
<trkpt lat="46.23888330" lon="7.29368330"><ele></ele><time>2014-6-11T10:34:41Z</time></trkpt>
<trkpt lat="46.23828330" lon="7.29246670"><ele></ele><time>2014-6-11T10:34:44Z</time></trkpt>
<trkpt lat="46.23815000" lon="7.29226670"><ele></ele><time>2014-6-11T10:34:47Z</time></trkpt>
<trkpt lat="46.23793330" lon="7.29230000"><ele></ele><time>2014-6-11T10:34:50Z</time></trkpt>
<trkpt lat="46.23781670" lon="7.29240000"><ele></ele><time>2014-6-11T10:34:53Z</time></trkpt>
<trkpt lat="46.23723330" lon="7.29338330"><ele></ele><time>2014-6-11T10:34:56Z</time></trkpt>
<trkpt lat="46.23728330" lon="7.29456670"><ele></ele><time>2014-6-11T10:34:59Z</time></trkpt>
<trkpt lat="46.23738330" lon="7.29490000"><ele></ele><time>2014-6-11T10:35:2Z</time></trkpt>
<trkpt lat="46.23833330" lon="7.29661670"><ele></ele><time>2014-6-11T10:35:5Z</time></trkpt>
<trkpt lat="46.23910000" lon="7.29783330"><ele></ele><time>2014-6-11T10:35:8Z</time></trkpt>
<trkpt lat="46.23998330" lon="7.29956670"><ele></ele><time>2014-6-11T10:35:11Z</time></trkpt>
<trkpt lat="46.24088330" lon="7.30055000"><ele></ele><time>2014-6-11T10:35:14Z</time></trkpt>
<trkpt lat="46.24150000" lon="7.30113330"><ele></ele><time>2014-6-11T10:35:17Z</time></trkpt>
<trkpt lat="46.24253330" lon="7.30338330"><ele></ele><time>2014-6-11T10:35:20Z</time></trkpt>
<trkpt lat="46.24303330" lon="7.30351670"><ele></ele><time>2014-6-11T10:35:23Z</time></trkpt>
<trkpt lat="46.24318330" lon="7.30388330"><ele></ele><time>2014-6-11T10:35:26Z</time></trkpt>
<trkpt lat="46.24343330" lon="7.30465000"><ele></ele><time>2014-6-11T10:35:29Z</time></trkpt>
<trkpt lat="46.24350000" lon="7.30545000"><ele></ele><time>2014-6-11T10:35:32Z</time></trkpt>
<trkpt lat="46.24380000" lon="7.30628330"><ele></ele><time>2014-6-11T10:35:35Z</time></trkpt>
<trkpt lat="46.24371670" lon="7.30678330"><ele></ele><time>2014-6-11T10:35:38Z</time></trkpt>
<trkpt lat="46.24360000" lon="7.30665000"><ele></ele><time>2014-6-11T10:35:41Z</time></trkpt>
<trkpt lat="46.24345000" lon="7.30640000"><ele></ele><time>2014-6-11T10:35:44Z</time></trkpt>
<trkpt lat="46.24290000" lon="7.30626670"><ele></ele><time>2014-6-11T10:35:47Z</time></trkpt>
<trkpt lat="46.24248330" lon="7.30625000"><ele></ele><time>2014-6-11T10:35:50Z</time></trkpt>
<trkpt lat="46.24210000" lon="7.30613330"><ele></ele><time>2014-6-11T10:35:53Z</time></trkpt>
<trkpt lat="46.24176670" lon="7.30620000"><ele></ele><time>2014-6-11T10:35:56Z</time></trkpt>
<trkpt lat="46.24121670" lon="7.30643330"><ele></ele><time>2014-6-11T10:35:59Z</time></trkpt>
<trkpt lat="46.24073330" lon="7.30651670"><ele></ele><time>2014-6-11T10:36:2Z</time></trkpt>
<trkpt lat="46.24026670" lon="7.30630000"><ele></ele><time>2014-6-11T10:36:5Z</time></trkpt>
<trkpt lat="46.23971670" lon="7.30561670"><ele></ele><time>2014-6-11T10:36:8Z</time></trkpt>
<trkpt lat="46.23913330" lon="7.30530000"><ele></ele><time>2014-6-11T10:36:11Z</time></trkpt>
<trkpt lat="46.23880000" lon="7.30500000"><ele></ele><time>2014-6-11T10:36:14Z</time></trkpt>
<trkpt lat="46.23781670" lon="7.30441670"><ele></ele><time>2014-6-11T10:36:17Z</time></trkpt>
<trkpt lat="46.23621670" lon="7.30433330"><ele></ele><time>2014-6-11T10:36:20Z</time></trkpt>
<trkpt lat="46.23485000" lon="7.30498330"><ele></ele><time>2014-6-11T10:36:23Z</time></trkpt>
<trkpt lat="46.23418330" lon="7.30465000"><ele></ele><time>2014-6-11T10:36:26Z</time></trkpt>
<trkpt lat="46.23400000" lon="7.30428330"><ele></ele><time>2014-6-11T10:36:29Z</time></trkpt>
<trkpt lat="46.23313330" lon="7.30210000"><ele></ele><time>2014-6-11T10:36:32Z</time></trkpt>
<trkpt lat="46.23285000" lon="7.30211670"><ele></ele><time>2014-6-11T10:36:35Z</time></trkpt>
<trkpt lat="46.23273330" lon="7.30225000"><ele></ele><time>2014-6-11T10:36:38Z</time></trkpt>
<trkpt lat="46.23251670" lon="7.30293330"><ele></ele><time>2014-6-11T10:36:41Z</time></trkpt>
<trkpt lat="46.23253330" lon="7.30360000"><ele></ele><time>2014-6-11T10:36:44Z</time></trkpt>
<trkpt lat="46.23266670" lon="7.30438330"><ele></ele><time>2014-6-11T10:36:47Z</time></trkpt>
<trkpt lat="46.23258330" lon="7.30560000"><ele></ele><time>2014-6-11T10:36:50Z</time></trkpt>
<trkpt lat="46.23281670" lon="7.30666670"><ele></ele><time>2014-6-11T10:36:53Z</time></trkpt>
<trkpt lat="46.23325000" lon="7.30793330"><ele></ele><time>2014-6-11T10:36:56Z</time></trkpt>
<trkpt lat="46.23401670" lon="7.30886670"><ele></ele><time>2014-6-11T10:36:59Z</time></trkpt>
<trkpt lat="46.23463330" lon="7.30953330"><ele></ele><time>2014-6-11T10:37:2Z</time></trkpt>
<trkpt lat="46.23446670" lon="7.31010000"><ele></ele><time>2014-6-11T10:37:5Z</time></trkpt>
<trkpt lat="46.23263330" lon="7.31085000"><ele></ele><time>2014-6-11T10:37:8Z</time></trkpt>
<trkpt lat="46.23095000" lon="7.31185000"><ele></ele><time>2014-6-11T10:37:11Z</time></trkpt>
<trkpt lat="46.23026670" lon="7.31218330"><ele></ele><time>2014-6-11T10:37:14Z</time></trkpt>
<trkpt lat="46.23005000" lon="7.31220000"><ele></ele><time>2014-6-11T10:37:17Z</time></trkpt>
</trkseg></trk></gpx>